sensor_id;sensor_type;location;lat;lon;timestamp;pressure;altitude;pressure_sealevel;temperature;humidity
48810;BME280;40070;47.322;18.784;2023-10-31T00:00:21;993.20;;;15.12;70.37
48810;BME280;40070;47.322;18.784;2023-10-31T00:02:24;993.15;;;15.15;69.92
48810;BME280;40070;47.322;18.784;2023-10-31T00:04:26;993.16;;;15.21;70.27
48810;BME280;40070;47.322;18.784;2023-10-31T00:06:29;993.12;;;15.34;69.95
48810;BME280;40070;47.322;18.784;2023-10-31T00:08:31;993.14;;;15.30;69.92
48810;BME280;40070;47.322;18.784;2023-10-31T00:10:34;993.13;;;15.19;70.39
48810;BME280;40070;47.322;18.784;2023-10-31T00:12:36;993.01;;;15.17;70.05
48810;BME280;40070;47.322;18.784;2023-10-31T00:14:39;992.93;;;15.29;69.37
48810;BME280;40070;47.322;18.784;2023-10-31T00:16:42;992.93;;;15.11;69.95
48810;BME280;40070;47.322;18.784;2023-10-31T00:18:44;992.90;;;15.03;70.28
48810;BME280;40070;47.322;18.784;2023-10-31T00:20:46;992.86;;;15.03;69.66
48810;BME280;40070;47.322;18.784;2023-10-31T00:22:49;992.86;;;15.18;69.18
48810;BME280;40070;47.322;18.784;2023-10-31T00:24:51;992.83;;;15.19;69.33
48810;BME280;40070;47.322;18.784;2023-10-31T00:26:54;992.87;;;14.99;70.12
48810;BME280;40070;47.322;18.784;2023-10-31T00:28:56;992.82;;;15.00;70.02
48810;BME280;40070;47.322;18.784;2023-10-31T00:30:59;992.83;;;14.84;70.28
48810;BME280;40070;47.322;18.784;2023-10-31T00:33:01;992.78;;;14.75;71.07
48810;BME280;40070;47.322;18.784;2023-10-31T00:35:04;992.70;;;14.63;70.94
48810;BME280;40070;47.322;18.784;2023-10-31T00:37:07;992.66;;;14.78;70.41
48810;BME280;40070;47.322;18.784;2023-10-31T00:39:09;992.59;;;14.92;69.82
48810;BME280;40070;47.322;18.784;2023-10-31T00:41:12;992.54;;;14.97;69.46
48810;BME280;40070;47.322;18.784;2023-10-31T00:43:14;992.48;;;14.95;69.80
48810;BME280;40070;47.322;18.784;2023-10-31T00:45:17;992.45;;;14.82;69.77
48810;BME280;40070;47.322;18.784;2023-10-31T00:47:19;992.43;;;14.95;69.83
48810;BME280;40070;47.322;18.784;2023-10-31T00:49:21;992.39;;;15.03;69.85
48810;BME280;40070;47.322;18.784;2023-10-31T00:51:24;992.42;;;15.15;69.37
48810;BME280;40070;47.322;18.784;2023-10-31T00:53:26;992.33;;;15.29;68.75
48810;BME280;40070;47.322;18.784;2023-10-31T00:55:29;992.32;;;15.27;68.78
48810;BME280;40070;47.322;18.784;2023-10-31T00:57:31;992.32;;;15.24;68.68
48810;BME280;40070;47.322;18.784;2023-10-31T00:59:34;992.29;;;15.27;68.90
48810;BME280;40070;47.322;18.784;2023-10-31T01:01:36;992.33;;;15.17;68.86
48810;BME280;40070;47.322;18.784;2023-10-31T01:03:39;992.32;;;15.08;69.05
48810;BME280;40070;47.322;18.784;2023-10-31T01:05:41;992.22;;;14.97;69.41
48810;BME280;40070;47.322;18.784;2023-10-31T01:07:44;992.19;;;14.98;69.03
48810;BME280;40070;47.322;18.784;2023-10-31T01:09:46;992.18;;;14.97;68.73
48810;BME280;40070;47.322;18.784;2023-10-31T01:11:49;992.21;;;14.73;69.99
48810;BME280;40070;47.322;18.784;2023-10-31T01:13:51;992.15;;;14.81;69.65
48810;BME280;40070;47.322;18.784;2023-10-31T01:15:54;992.13;;;15.01;68.47
48810;BME280;40070;47.322;18.784;2023-10-31T01:17:56;992.09;;;14.85;69.05
48810;BME280;40070;47.322;18.784;2023-10-31T01:19:59;992.08;;;14.91;68.58
48810;BME280;40070;47.322;18.784;2023-10-31T01:22:01;992.06;;;14.79;68.89
48810;BME280;40070;47.322;18.784;2023-10-31T01:24:04;991.98;;;14.72;69.19
48810;BME280;40070;47.322;18.784;2023-10-31T01:26:07;991.96;;;14.72;69.12
48810;BME280;40070;47.322;18.784;2023-10-31T01:28:09;991.90;;;14.77;68.60
48810;BME280;40070;47.322;18.784;2023-10-31T01:30:12;991.90;;;14.66;69.04
48810;BME280;40070;47.322;18.784;2023-10-31T01:32:14;991.84;;;14.74;68.57
48810;BME280;40070;47.322;18.784;2023-10-31T01:34:17;991.81;;;14.87;68.26
48810;BME280;40070;47.322;18.784;2023-10-31T01:36:23;991.84;;;14.76;68.67
48810;BME280;40070;47.322;18.784;2023-10-31T01:38:26;991.82;;;14.76;68.75
48810;BME280;40070;47.322;18.784;2023-10-31T01:40:28;991.80;;;14.76;68.69
48810;BME280;40070;47.322;18.784;2023-10-31T01:42:31;991.68;;;14.91;67.88
48810;BME280;40070;47.322;18.784;2023-10-31T01:44:33;991.69;;;15.03;67.47
48810;BME280;40070;47.322;18.784;2023-10-31T01:46:36;991.76;;;15.13;67.50
48810;BME280;40070;47.322;18.784;2023-10-31T01:48:38;991.69;;;15.00;67.49
48810;BME280;40070;47.322;18.784;2023-10-31T01:50:41;991.69;;;15.04;67.53
48810;BME280;40070;47.322;18.784;2023-10-31T01:52:43;991.64;;;14.97;67.66
48810;BME280;40070;47.322;18.784;2023-10-31T01:54:46;991.68;;;14.86;68.04
48810;BME280;40070;47.322;18.784;2023-10-31T01:56:49;991.66;;;14.73;68.16
48810;BME280;40070;47.322;18.784;2023-10-31T01:58:51;991.61;;;14.88;67.98
48810;BME280;40070;47.322;18.784;2023-10-31T02:00:55;991.59;;;14.93;67.55
48810;BME280;40070;47.322;18.784;2023-10-31T02:02:57;991.50;;;14.82;68.52
48810;BME280;40070;47.322;18.784;2023-10-31T02:05:00;991.45;;;14.86;68.05
48810;BME280;40070;47.322;18.784;2023-10-31T02:07:03;991.34;;;15.05;67.05
48810;BME280;40070;47.322;18.784;2023-10-31T02:09:06;991.37;;;14.95;67.17
48810;BME280;40070;47.322;18.784;2023-10-31T02:11:08;991.34;;;14.76;67.67
48810;BME280;40070;47.322;18.784;2023-10-31T02:13:11;991.30;;;14.66;68.10
48810;BME280;40070;47.322;18.784;2023-10-31T02:15:14;991.34;;;14.83;67.54
48810;BME280;40070;47.322;18.784;2023-10-31T02:17:16;991.29;;;14.95;67.02
48810;BME280;40070;47.322;18.784;2023-10-31T02:19:19;991.35;;;15.09;66.50
48810;BME280;40070;47.322;18.784;2023-10-31T02:21:22;991.31;;;14.95;67.18
48810;BME280;40070;47.322;18.784;2023-10-31T02:23:27;991.36;;;14.96;67.82
48810;BME280;40070;47.322;18.784;2023-10-31T02:25:30;991.35;;;14.91;67.58
48810;BME280;40070;47.322;18.784;2023-10-31T02:27:32;991.29;;;14.93;67.79
48810;BME280;40070;47.322;18.784;2023-10-31T02:29:35;991.23;;;14.91;66.80
48810;BME280;40070;47.322;18.784;2023-10-31T02:31:37;991.23;;;15.04;66.47
48810;BME280;40070;47.322;18.784;2023-10-31T02:33:40;991.22;;;15.10;65.94
48810;BME280;40070;47.322;18.784;2023-10-31T02:35:42;991.23;;;14.84;66.69
48810;BME280;40070;47.322;18.784;2023-10-31T02:37:48;991.29;;;14.96;66.54
48810;BME280;40070;47.322;18.784;2023-10-31T02:39:50;991.30;;;15.06;66.20
48810;BME280;40070;47.322;18.784;2023-10-31T02:41:53;991.40;;;15.13;66.07
48810;BME280;40070;47.322;18.784;2023-10-31T02:43:55;991.41;;;15.11;65.87
48810;BME280;40070;47.322;18.784;2023-10-31T02:45:58;991.42;;;15.26;65.33
48810;BME280;40070;47.322;18.784;2023-10-31T02:48:00;991.46;;;15.30;65.53
48810;BME280;40070;47.322;18.784;2023-10-31T02:50:03;991.43;;;15.07;66.01
48810;BME280;40070;47.322;18.784;2023-10-31T02:52:05;991.40;;;15.22;65.87
48810;BME280;40070;47.322;18.784;2023-10-31T02:54:08;991.38;;;15.28;65.62
48810;BME280;40070;47.322;18.784;2023-10-31T02:56:10;991.38;;;15.17;65.65
48810;BME280;40070;47.322;18.784;2023-10-31T02:58:13;991.36;;;15.22;65.66
48810;BME280;40070;47.322;18.784;2023-10-31T03:00:16;991.29;;;15.04;66.80
48810;BME280;40070;47.322;18.784;2023-10-31T03:02:18;991.29;;;15.21;65.78
48810;BME280;40070;47.322;18.784;2023-10-31T03:04:21;991.33;;;15.05;66.61
48810;BME280;40070;47.322;18.784;2023-10-31T03:06:23;991.30;;;14.99;67.35
48810;BME280;40070;47.322;18.784;2023-10-31T03:08:26;991.24;;;15.04;66.85
48810;BME280;40070;47.322;18.784;2023-10-31T03:10:28;991.21;;;15.05;66.73
48810;BME280;40070;47.322;18.784;2023-10-31T03:12:30;991.34;;;15.17;66.43
48810;BME280;40070;47.322;18.784;2023-10-31T03:14:33;991.29;;;15.25;66.07
48810;BME280;40070;47.322;18.784;2023-10-31T03:16:36;991.36;;;15.03;67.62
48810;BME280;40070;47.322;18.784;2023-10-31T03:18:38;991.43;;;14.97;67.94
48810;BME280;40070;47.322;18.784;2023-10-31T03:20:43;991.47;;;14.93;68.56
48810;BME280;40070;47.322;18.784;2023-10-31T03:22:45;991.52;;;15.25;67.62
48810;BME280;40070;47.322;18.784;2023-10-31T03:24:48;991.55;;;15.34;66.84
48810;BME280;40070;47.322;18.784;2023-10-31T03:26:50;991.56;;;15.31;67.41
48810;BME280;40070;47.322;18.784;2023-10-31T03:28:53;991.60;;;15.39;67.28
48810;BME280;40070;47.322;18.784;2023-10-31T03:30:55;991.58;;;15.41;68.17
48810;BME280;40070;47.322;18.784;2023-10-31T03:32:58;991.69;;;15.19;69.29
48810;BME280;40070;47.322;18.784;2023-10-31T03:35:00;991.81;;;15.16;70.26
48810;BME280;40070;47.322;18.784;2023-10-31T03:37:03;991.71;;;15.10;71.39
48810;BME280;40070;47.322;18.784;2023-10-31T03:39:05;991.52;;;14.93;70.66
48810;BME280;40070;47.322;18.784;2023-10-31T03:41:08;991.59;;;15.10;68.66
48810;BME280;40070;47.322;18.784;2023-10-31T03:43:10;991.57;;;15.08;69.77
48810;BME280;40070;47.322;18.784;2023-10-31T03:45:13;991.65;;;15.11;69.53
48810;BME280;40070;47.322;18.784;2023-10-31T03:47:15;991.61;;;15.11;69.75
48810;BME280;40070;47.322;18.784;2023-10-31T03:49:18;991.54;;;15.11;68.76
48810;BME280;40070;47.322;18.784;2023-10-31T03:51:20;991.56;;;15.10;68.79
48810;BME280;40070;47.322;18.784;2023-10-31T03:53:23;991.59;;;14.98;70.77
48810;BME280;40070;47.322;18.784;2023-10-31T03:55:25;991.60;;;15.02;70.41
48810;BME280;40070;47.322;18.784;2023-10-31T03:57:28;991.62;;;14.99;71.36
48810;BME280;40070;47.322;18.784;2023-10-31T03:59:30;991.64;;;15.07;71.23
48810;BME280;40070;47.322;18.784;2023-10-31T04:01:33;991.62;;;15.04;70.83
48810;BME280;40070;47.322;18.784;2023-10-31T04:03:35;991.55;;;15.14;70.66
48810;BME280;40070;47.322;18.784;2023-10-31T04:05:38;991.67;;;15.13;70.85
48810;BME280;40070;47.322;18.784;2023-10-31T04:07:40;991.70;;;15.15;69.77
48810;BME280;40070;47.322;18.784;2023-10-31T04:09:43;991.59;;;15.15;71.65
48810;BME280;40070;47.322;18.784;2023-10-31T04:11:45;991.59;;;14.94;72.08
48810;BME280;40070;47.322;18.784;2023-10-31T04:13:48;991.66;;;15.04;72.60
48810;BME280;40070;47.322;18.784;2023-10-31T04:15:50;991.58;;;15.05;70.73
48810;BME280;40070;47.322;18.784;2023-10-31T04:17:53;991.49;;;15.03;70.58
48810;BME280;40070;47.322;18.784;2023-10-31T04:19:55;991.44;;;14.89;70.32
48810;BME280;40070;47.322;18.784;2023-10-31T04:21:58;991.44;;;14.75;71.57
48810;BME280;40070;47.322;18.784;2023-10-31T04:24:00;991.40;;;14.99;70.67
48810;BME280;40070;47.322;18.784;2023-10-31T04:26:03;991.47;;;15.06;71.02
48810;BME280;40070;47.322;18.784;2023-10-31T04:28:05;991.50;;;15.04;71.56
48810;BME280;40070;47.322;18.784;2023-10-31T04:30:08;991.50;;;15.11;71.06
48810;BME280;40070;47.322;18.784;2023-10-31T04:32:11;991.45;;;14.79;71.69
48810;BME280;40070;47.322;18.784;2023-10-31T04:34:13;991.39;;;14.68;72.28
48810;BME280;40070;47.322;18.784;2023-10-31T04:36:16;991.37;;;14.84;71.11
48810;BME280;40070;47.322;18.784;2023-10-31T04:38:18;991.36;;;14.88;71.93
48810;BME280;40070;47.322;18.784;2023-10-31T04:40:21;991.21;;;14.92;72.00
48810;BME280;40070;47.322;18.784;2023-10-31T04:42:23;991.19;;;14.66;72.19
48810;BME280;40070;47.322;18.784;2023-10-31T04:44:26;991.14;;;14.81;71.54
48810;BME280;40070;47.322;18.784;2023-10-31T04:46:28;991.14;;;14.62;72.42
48810;BME280;40070;47.322;18.784;2023-10-31T04:48:31;991.11;;;14.73;71.83
48810;BME280;40070;47.322;18.784;2023-10-31T04:50:33;991.05;;;14.81;71.01
48810;BME280;40070;47.322;18.784;2023-10-31T04:52:36;990.99;;;14.89;69.38
48810;BME280;40070;47.322;18.784;2023-10-31T04:54:39;990.93;;;14.98;69.44
48810;BME280;40070;47.322;18.784;2023-10-31T04:56:42;990.88;;;15.02;69.20
48810;BME280;40070;47.322;18.784;2023-10-31T04:58:44;990.84;;;14.92;69.69
48810;BME280;40070;47.322;18.784;2023-10-31T05:00:46;990.73;;;14.85;69.32
48810;BME280;40070;47.322;18.784;2023-10-31T05:02:49;990.67;;;15.02;68.90
48810;BME280;40070;47.322;18.784;2023-10-31T05:04:51;990.71;;;14.98;68.47
48810;BME280;40070;47.322;18.784;2023-10-31T05:06:54;990.63;;;15.05;68.52
48810;BME280;40070;47.322;18.784;2023-10-31T05:08:56;990.66;;;15.11;68.45
48810;BME280;40070;47.322;18.784;2023-10-31T05:10:59;990.65;;;15.15;69.32
48810;BME280;40070;47.322;18.784;2023-10-31T05:13:01;990.67;;;15.18;68.64
48810;BME280;40070;47.322;18.784;2023-10-31T05:15:04;990.77;;;15.16;65.53
48810;BME280;40070;47.322;18.784;2023-10-31T05:17:07;990.81;;;15.32;64.22
48810;BME280;40070;47.322;18.784;2023-10-31T05:19:10;990.82;;;15.49;63.50
48810;BME280;40070;47.322;18.784;2023-10-31T05:21:12;990.75;;;15.45;63.42
48810;BME280;40070;47.322;18.784;2023-10-31T05:23:20;990.75;;;15.49;64.99
48810;BME280;40070;47.322;18.784;2023-10-31T05:25:23;990.77;;;15.31;64.85
48810;BME280;40070;47.322;18.784;2023-10-31T05:27:25;990.70;;;15.23;65.12
48810;BME280;40070;47.322;18.784;2023-10-31T05:29:28;990.71;;;15.17;64.90
48810;BME280;40070;47.322;18.784;2023-10-31T05:31:30;990.78;;;15.27;64.57
48810;BME280;40070;47.322;18.784;2023-10-31T05:33:33;990.83;;;15.39;64.29
48810;BME280;40070;47.322;18.784;2023-10-31T05:35:36;990.90;;;15.43;63.64
48810;BME280;40070;47.322;18.784;2023-10-31T05:37:38;990.96;;;15.39;65.79
48810;BME280;40070;47.322;18.784;2023-10-31T05:39:41;990.99;;;15.55;65.02
48810;BME280;40070;47.322;18.784;2023-10-31T05:41:43;991.03;;;15.33;68.15
48810;BME280;40070;47.322;18.784;2023-10-31T05:43:45;990.97;;;15.31;68.63
48810;BME280;40070;47.322;18.784;2023-10-31T05:45:48;990.96;;;15.11;70.11
48810;BME280;40070;47.322;18.784;2023-10-31T05:47:50;990.95;;;15.23;69.21
48810;BME280;40070;47.322;18.784;2023-10-31T05:49:53;990.87;;;14.83;70.74
48810;BME280;40070;47.322;18.784;2023-10-31T05:51:55;990.87;;;15.19;70.02
48810;BME280;40070;47.322;18.784;2023-10-31T05:53:58;990.85;;;15.05;69.50
48810;BME280;40070;47.322;18.784;2023-10-31T06:00:32;990.87;;;15.21;69.62
48810;BME280;40070;47.322;18.784;2023-10-31T06:02:35;990.89;;;15.15;69.74
48810;BME280;40070;47.322;18.784;2023-10-31T06:04:37;990.80;;;15.34;69.79
48810;BME280;40070;47.322;18.784;2023-10-31T06:06:40;990.81;;;15.30;69.43
48810;BME280;40070;47.322;18.784;2023-10-31T06:08:42;990.79;;;15.45;66.62
48810;BME280;40070;47.322;18.784;2023-10-31T06:10:45;990.78;;;15.53;65.75
48810;BME280;40070;47.322;18.784;2023-10-31T06:12:47;990.73;;;15.54;67.54
48810;BME280;40070;47.322;18.784;2023-10-31T06:14:50;990.77;;;15.57;66.81
48810;BME280;40070;47.322;18.784;2023-10-31T06:16:52;990.86;;;15.52;65.76
48810;BME280;40070;47.322;18.784;2023-10-31T06:18:55;990.79;;;15.69;65.52
48810;BME280;40070;47.322;18.784;2023-10-31T06:20:57;990.79;;;15.67;66.80
48810;BME280;40070;47.322;18.784;2023-10-31T06:23:00;990.69;;;15.57;69.39
48810;BME280;40070;47.322;18.784;2023-10-31T06:25:03;990.60;;;15.57;67.57
48810;BME280;40070;47.322;18.784;2023-10-31T06:27:06;990.53;;;15.68;67.44
48810;BME280;40070;47.322;18.784;2023-10-31T06:29:08;990.45;;;15.56;67.06
48810;BME280;40070;47.322;18.784;2023-10-31T06:31:11;990.40;;;15.76;67.89
48810;BME280;40070;47.322;18.784;2023-10-31T06:33:13;990.46;;;15.74;66.41
48810;BME280;40070;47.322;18.784;2023-10-31T06:35:16;990.42;;;15.70;65.76
48810;BME280;40070;47.322;18.784;2023-10-31T06:37:18;990.50;;;15.79;64.35
48810;BME280;40070;47.322;18.784;2023-10-31T06:39:21;990.62;;;15.82;64.10
48810;BME280;40070;47.322;18.784;2023-10-31T06:41:23;990.69;;;15.71;64.35
48810;BME280;40070;47.322;18.784;2023-10-31T06:43:26;990.70;;;15.57;65.25
48810;BME280;40070;47.322;18.784;2023-10-31T06:45:28;990.70;;;15.57;64.05
48810;BME280;40070;47.322;18.784;2023-10-31T06:47:31;990.79;;;15.69;65.05
48810;BME280;40070;47.322;18.784;2023-10-31T06:49:33;990.95;;;15.63;64.91
48810;BME280;40070;47.322;18.784;2023-10-31T06:51:36;990.99;;;15.51;65.78
48810;BME280;40070;47.322;18.784;2023-10-31T06:53:38;991.06;;;15.64;67.69
48810;BME280;40070;47.322;18.784;2023-10-31T06:55:41;991.05;;;15.52;66.26
48810;BME280;40070;47.322;18.784;2023-10-31T06:57:43;990.99;;;15.36;68.01
48810;BME280;40070;47.322;18.784;2023-10-31T06:59:46;991.03;;;15.53;67.55
48810;BME280;40070;47.322;18.784;2023-10-31T07:01:48;991.06;;;15.56;66.89
48810;BME280;40070;47.322;18.784;2023-10-31T07:03:51;991.06;;;15.53;66.93
48810;BME280;40070;47.322;18.784;2023-10-31T07:05:53;991.03;;;15.87;67.98
48810;BME280;40070;47.322;18.784;2023-10-31T07:07:55;991.07;;;15.71;67.98
48810;BME280;40070;47.322;18.784;2023-10-31T07:09:58;990.99;;;15.94;68.42
48810;BME280;40070;47.322;18.784;2023-10-31T07:12:01;990.99;;;15.93;67.01
48810;BME280;40070;47.322;18.784;2023-10-31T07:14:03;991.00;;;15.89;67.63
48810;BME280;40070;47.322;18.784;2023-10-31T07:16:06;990.97;;;16.13;67.68
48810;BME280;40070;47.322;18.784;2023-10-31T07:18:09;991.01;;;16.28;67.84
48810;BME280;40070;47.322;18.784;2023-10-31T07:20:11;991.05;;;16.31;67.18
48810;BME280;40070;47.322;18.784;2023-10-31T07:22:13;991.00;;;16.32;66.01
48810;BME280;40070;47.322;18.784;2023-10-31T07:24:16;990.95;;;16.35;64.41
48810;BME280;40070;47.322;18.784;2023-10-31T07:26:18;990.93;;;16.43;62.58
48810;BME280;40070;47.322;18.784;2023-10-31T07:28:21;990.93;;;16.58;63.13
48810;BME280;40070;47.322;18.784;2023-10-31T07:30:23;990.92;;;16.26;65.97
48810;BME280;40070;47.322;18.784;2023-10-31T07:32:26;991.04;;;16.52;64.80
48810;BME280;40070;47.322;18.784;2023-10-31T07:34:28;991.03;;;16.55;64.62
48810;BME280;40070;47.322;18.784;2023-10-31T07:36:31;991.09;;;16.66;63.88
48810;BME280;40070;47.322;18.784;2023-10-31T07:38:33;991.09;;;16.71;63.89
48810;BME280;40070;47.322;18.784;2023-10-31T07:40:36;991.05;;;16.71;65.18
48810;BME280;40070;47.322;18.784;2023-10-31T07:42:39;991.01;;;16.77;63.40
48810;BME280;40070;47.322;18.784;2023-10-31T07:44:41;990.97;;;16.77;62.65
48810;BME280;40070;47.322;18.784;2023-10-31T07:46:44;990.99;;;17.09;62.96
48810;BME280;40070;47.322;18.784;2023-10-31T07:48:46;990.97;;;17.34;60.62
48810;BME280;40070;47.322;18.784;2023-10-31T07:50:48;990.98;;;17.44;60.53
48810;BME280;40070;47.322;18.784;2023-10-31T07:52:51;990.94;;;17.57;60.05
48810;BME280;40070;47.322;18.784;2023-10-31T07:54:53;990.88;;;17.57;59.13
48810;BME280;40070;47.322;18.784;2023-10-31T07:56:56;990.91;;;17.63;62.25
48810;BME280;40070;47.322;18.784;2023-10-31T07:58:59;990.94;;;17.52;62.87
48810;BME280;40070;47.322;18.784;2023-10-31T08:01:01;991.02;;;17.61;62.94
48810;BME280;40070;47.322;18.784;2023-10-31T08:03:04;991.04;;;17.45;62.49
48810;BME280;40070;47.322;18.784;2023-10-31T08:05:07;991.02;;;17.25;60.16
48810;BME280;40070;47.322;18.784;2023-10-31T08:07:09;991.05;;;17.48;58.66
48810;BME280;40070;47.322;18.784;2023-10-31T08:09:12;991.10;;;17.56;62.49
48810;BME280;40070;47.322;18.784;2023-10-31T08:11:14;991.01;;;17.43;60.31
48810;BME280;40070;47.322;18.784;2023-10-31T08:13:17;990.90;;;17.44;59.21
48810;BME280;40070;47.322;18.784;2023-10-31T08:15:19;990.94;;;17.59;58.33
48810;BME280;40070;47.322;18.784;2023-10-31T08:17:22;990.95;;;17.48;57.56
48810;BME280;40070;47.322;18.784;2023-10-31T08:19:24;990.95;;;17.60;56.98
48810;BME280;40070;47.322;18.784;2023-10-31T08:21:27;990.92;;;17.63;56.79
48810;BME280;40070;47.322;18.784;2023-10-31T08:23:29;990.91;;;17.63;56.34
48810;BME280;40070;47.322;18.784;2023-10-31T08:25:31;990.95;;;17.72;57.41
48810;BME280;40070;47.322;18.784;2023-10-31T08:27:34;990.92;;;17.80;56.61
48810;BME280;40070;47.322;18.784;2023-10-31T08:29:37;990.82;;;17.89;55.58
48810;BME280;40070;47.322;18.784;2023-10-31T08:31:39;990.85;;;17.95;55.98
48810;BME280;40070;47.322;18.784;2023-10-31T08:33:42;990.92;;;17.94;55.82
48810;BME280;40070;47.322;18.784;2023-10-31T08:35:44;990.83;;;17.99;55.51
48810;BME280;40070;47.322;18.784;2023-10-31T08:37:47;990.82;;;17.87;55.55
48810;BME280;40070;47.322;18.784;2023-10-31T08:39:49;990.82;;;18.02;55.10
48810;BME280;40070;47.322;18.784;2023-10-31T08:41:55;990.76;;;18.04;54.85
48810;BME280;40070;47.322;18.784;2023-10-31T08:43:58;990.72;;;18.12;54.90
48810;BME280;40070;47.322;18.784;2023-10-31T08:46:00;990.70;;;18.07;54.17
48810;BME280;40070;47.322;18.784;2023-10-31T08:48:03;990.64;;;18.17;54.39
48810;BME280;40070;47.322;18.784;2023-10-31T08:50:06;990.63;;;18.24;54.78
48810;BME280;40070;47.322;18.784;2023-10-31T08:52:08;990.54;;;18.28;53.88
48810;BME280;40070;47.322;18.784;2023-10-31T08:54:11;990.44;;;18.21;53.68
48810;BME280;40070;47.322;18.784;2023-10-31T08:56:13;990.35;;;18.26;53.36
48810;BME280;40070;47.322;18.784;2023-10-31T08:58:16;990.33;;;18.40;53.01
48810;BME280;40070;47.322;18.784;2023-10-31T09:00:18;990.36;;;18.44;52.69
48810;BME280;40070;47.322;18.784;2023-10-31T09:02:21;990.37;;;18.45;52.59
48810;BME280;40070;47.322;18.784;2023-10-31T09:04:23;990.33;;;18.42;52.23
48810;BME280;40070;47.322;18.784;2023-10-31T09:06:26;990.37;;;18.43;52.42
48810;BME280;40070;47.322;18.784;2023-10-31T09:08:28;990.32;;;18.45;52.48
48810;BME280;40070;47.322;18.784;2023-10-31T09:10:32;990.33;;;18.29;52.11
48810;BME280;40070;47.322;18.784;2023-10-31T09:12:34;990.25;;;18.43;51.45
48810;BME280;40070;47.322;18.784;2023-10-31T09:14:37;990.21;;;18.48;51.83
48810;BME280;40070;47.322;18.784;2023-10-31T09:16:39;990.25;;;18.57;52.26
48810;BME280;40070;47.322;18.784;2023-10-31T09:18:42;990.18;;;18.54;51.64
48810;BME280;40070;47.322;18.784;2023-10-31T09:20:44;990.10;;;18.62;50.62
48810;BME280;40070;47.322;18.784;2023-10-31T09:22:47;990.14;;;18.58;51.72
48810;BME280;40070;47.322;18.784;2023-10-31T09:24:49;990.17;;;18.60;50.50
48810;BME280;40070;47.322;18.784;2023-10-31T09:26:51;990.04;;;18.71;51.07
48810;BME280;40070;47.322;18.784;2023-10-31T09:28:54;989.95;;;18.73;50.00
48810;BME280;40070;47.322;18.784;2023-10-31T09:30:57;989.93;;;18.73;49.99
48810;BME280;40070;47.322;18.784;2023-10-31T09:32:59;989.99;;;18.66;50.57
48810;BME280;40070;47.322;18.784;2023-10-31T09:35:02;989.97;;;18.69;48.84
48810;BME280;40070;47.322;18.784;2023-10-31T09:37:04;989.98;;;18.80;49.07
48810;BME280;40070;47.322;18.784;2023-10-31T09:39:07;989.91;;;18.90;49.02
48810;BME280;40070;47.322;18.784;2023-10-31T09:41:09;989.89;;;18.84;49.09
48810;BME280;40070;47.322;18.784;2023-10-31T09:43:12;989.94;;;18.87;48.89
48810;BME280;40070;47.322;18.784;2023-10-31T09:45:15;989.91;;;18.87;49.93
48810;BME280;40070;47.322;18.784;2023-10-31T09:47:17;989.92;;;18.87;50.47
48810;BME280;40070;47.322;18.784;2023-10-31T09:49:21;989.82;;;18.96;49.87
48810;BME280;40070;47.322;18.784;2023-10-31T09:51:24;989.75;;;18.83;49.76
48810;BME280;40070;47.322;18.784;2023-10-31T09:53:27;989.76;;;19.04;49.28
48810;BME280;40070;47.322;18.784;2023-10-31T09:55:31;989.65;;;18.93;49.77
48810;BME280;40070;47.322;18.784;2023-10-31T09:57:34;989.53;;;19.02;49.28
48810;BME280;40070;47.322;18.784;2023-10-31T09:59:36;989.46;;;18.95;49.90
48810;BME280;40070;47.322;18.784;2023-10-31T10:01:39;989.48;;;18.99;49.86
48810;BME280;40070;47.322;18.784;2023-10-31T10:03:41;989.40;;;18.96;49.95
48810;BME280;40070;47.322;18.784;2023-10-31T10:05:44;989.33;;;19.07;49.85
48810;BME280;40070;47.322;18.784;2023-10-31T10:07:46;989.31;;;19.15;50.86
48810;BME280;40070;47.322;18.784;2023-10-31T10:09:49;989.13;;;19.22;50.53
48810;BME280;40070;47.322;18.784;2023-10-31T10:11:51;988.99;;;19.14;50.27
48810;BME280;40070;47.322;18.784;2023-10-31T10:13:54;988.91;;;19.11;50.78
48810;BME280;40070;47.322;18.784;2023-10-31T10:15:59;988.80;;;19.20;50.44
48810;BME280;40070;47.322;18.784;2023-10-31T10:18:02;988.76;;;19.23;49.89
48810;BME280;40070;47.322;18.784;2023-10-31T10:20:07;988.73;;;19.24;49.95
48810;BME280;40070;47.322;18.784;2023-10-31T10:22:10;988.70;;;19.26;49.52
48810;BME280;40070;47.322;18.784;2023-10-31T10:24:12;988.67;;;19.26;49.93
48810;BME280;40070;47.322;18.784;2023-10-31T10:26:15;988.54;;;19.40;49.44
48810;BME280;40070;47.322;18.784;2023-10-31T10:28:18;988.45;;;19.36;49.81
48810;BME280;40070;47.322;18.784;2023-10-31T10:30:21;988.45;;;19.52;49.94
48810;BME280;40070;47.322;18.784;2023-10-31T10:32:23;988.38;;;19.53;48.98
48810;BME280;40070;47.322;18.784;2023-10-31T10:34:26;988.43;;;19.54;48.90
48810;BME280;40070;47.322;18.784;2023-10-31T10:36:28;988.43;;;19.55;48.09
48810;BME280;40070;47.322;18.784;2023-10-31T10:38:34;988.42;;;19.45;48.87
48810;BME280;40070;47.322;18.784;2023-10-31T10:40:41;988.28;;;19.54;48.84
48810;BME280;40070;47.322;18.784;2023-10-31T10:42:47;988.17;;;19.51;48.27
48810;BME280;40070;47.322;18.784;2023-10-31T10:44:49;988.15;;;19.39;48.59
48810;BME280;40070;47.322;18.784;2023-10-31T10:46:53;988.18;;;19.47;48.55
48810;BME280;40070;47.322;18.784;2023-10-31T10:48:57;988.21;;;19.63;47.58
48810;BME280;40070;47.322;18.784;2023-10-31T10:51:04;988.26;;;19.68;46.72
48810;BME280;40070;47.322;18.784;2023-10-31T10:53:09;988.24;;;19.69;46.94
48810;BME280;40070;47.322;18.784;2023-10-31T10:55:21;988.14;;;19.75;46.55
48810;BME280;40070;47.322;18.784;2023-10-31T10:59:53;988.00;;;19.75;47.12
48810;BME280;40070;47.322;18.784;2023-10-31T11:01:58;988.05;;;19.77;46.47
48810;BME280;40070;47.322;18.784;2023-10-31T11:04:00;988.20;;;19.86;46.75